Time;durP1;ratioP1;P1;durP2;ratioP2;P2;SDS_P1;SDS_P2;PMS_P1;PMS_P2;Temp;Humidity;BMP_temperature;BMP_pressure;BME280_temperature;BME280_humidity;BME280_pressure;Samples;Min_cycle;Max_cycle;Signal;HPM_P1;HPM_P2
2023/08/07 00:02:04;;;;;;;3.95;1.10;;;;;;;20.04;50.28;101439.84;16155049;19;130658;-57
2023/08/07 00:07:26;;;;;;;3.50;0.98;;;;;;;20.03;50.23;101442.88;16150573;19;130207;-57
2023/08/07 00:12:48;;;;;;;4.00;1.05;;;;;;;20.03;50.22;101426.22;16149770;19;130131;-56
2023/08/07 00:18:10;;;;;;;3.03;0.60;;;;;;;20.03;50.40;101440.94;16149146;19;130289;-63
2023/08/07 00:23:32;;;;;;;4.53;1.27;;;;;;;20.02;50.37;101439.22;16153855;19;131287;-60
2023/08/07 00:28:55;;;;;;;3.28;0.93;;;;;;;20.01;50.66;101443.09;16150567;19;129187;-61
2023/08/07 00:34:17;;;;;;;4.38;1.10;;;;;;;20.02;50.63;101441.19;16149220;19;130675;-55
2023/08/07 00:39:39;;;;;;;3.13;0.93;;;;;;;20.01;50.28;101450.59;16141518;19;129207;-58
2023/08/07 00:45:01;;;;;;;3.70;0.90;;;;;;;20.00;50.24;101466.41;16135839;19;131567;-60
2023/08/07 00:50:24;;;;;;;1.85;0.65;;;;;;;19.99;50.39;101459.16;16138395;19;131315;-59
2023/08/07 00:55:54;;;;;;;3.53;0.90;;;;;;;19.98;50.60;101474.94;16130026;19;129707;-60
2023/08/07 01:01:17;;;;;;;2.10;0.60;;;;;;;19.97;50.09;101461.31;16126486;19;129520;-60
2023/08/07 01:06:40;;;;;;;2.28;0.77;;;;;;;19.96;50.33;101468.78;16123101;19;129716;-59
2023/08/07 01:12:15;;;;;;;2.42;0.60;;;;;;;19.98;50.51;101468.56;16106702;19;130065;-60
2023/08/07 01:17:37;;;;;;;2.40;0.90;;;;;;;19.96;50.57;101467.97;16110295;19;130422;-61
2023/08/07 01:22:59;;;;;;;2.75;0.63;;;;;;;19.95;50.53;101469.88;16118720;19;130108;-60
2023/08/07 01:28:37;;;;;;;1.63;0.70;;;;;;;19.96;50.33;101460.47;16122936;19;129818;-59
2023/08/07 01:34:04;;;;;;;1.40;0.80;;;;;;;19.94;50.34;101473.75;16121897;19;130757;-59
2023/08/07 01:39:27;;;;;;;1.70;0.77;;;;;;;19.94;50.58;101467.34;16119861;19;130433;-60
2023/08/07 01:44:49;;;;;;;1.73;0.75;;;;;;;19.93;50.33;101460.97;16120622;19;129218;-59
2023/08/07 01:50:11;;;;;;;2.67;0.80;;;;;;;19.93;50.37;101465.66;16123181;19;130399;-60
2023/08/07 01:55:33;;;;;;;1.90;0.63;;;;;;;19.92;50.52;101470.38;16125380;19;130906;-62
2023/08/07 02:00:56;;;;;;;1.00;0.60;;;;;;;19.91;50.13;101463.13;16093998;19;130656;-60
2023/08/07 02:06:18;;;;;;;2.17;0.80;;;;;;;19.89;50.50;101470.84;16105495;19;134237;-60
2023/08/07 02:11:40;;;;;;;2.58;1.05;;;;;;;19.89;50.10;101470.84;16104525;19;131037;-68
2023/08/07 02:17:02;;;;;;;2.47;0.50;;;;;;;19.89;50.14;101470.84;16113069;19;131894;-63
2023/08/07 02:22:24;;;;;;;1.85;0.60;;;;;;;19.89;50.47;101478.31;16110420;19;131123;-64
2023/08/07 02:27:47;;;;;;;1.40;0.70;;;;;;;19.88;50.44;101479.44;16113540;19;129902;-60
2023/08/07 02:33:09;;;;;;;3.30;0.82;;;;;;;19.87;50.29;101481.34;16110756;19;131073;-63
2023/08/07 02:38:30;;;;;;;1.73;0.57;;;;;;;19.87;50.45;101478.56;16103835;19;130929;-67
2023/08/07 02:43:55;;;;;;;1.40;0.63;;;;;;;19.86;50.06;101476.88;16100834;19;130613;-61
2023/08/07 02:49:17;;;;;;;1.30;0.50;;;;;;;19.84;50.18;101468.81;16107761;19;129841;-63
2023/08/07 02:54:39;;;;;;;2.10;0.70;;;;;;;19.86;50.39;101481.59;16108006;19;131389;-69
2023/08/07 03:00:01;;;;;;;1.80;0.70;;;;;;;19.85;50.39;101480.75;16107425;19;129809;-62
2023/08/07 03:05:23;;;;;;;1.80;0.63;;;;;;;19.84;50.26;101474.38;16108467;19;136079;-63
2023/08/07 03:10:55;;;;;;;1.33;0.70;;;;;;;19.86;50.28;101476.88;16108141;19;129542;-67
2023/08/07 03:16:17;;;;;;;2.33;0.73;;;;;;;19.84;50.24;101470.72;16107227;19;130222;-64
2023/08/07 03:21:39;;;;;;;2.67;0.68;;;;;;;19.83;50.22;101469.03;16106579;19;130875;-63
2023/08/07 03:27:01;;;;;;;1.45;0.60;;;;;;;19.82;49.93;101468.19;16109833;19;129708;-65
2023/08/07 03:32:24;;;;;;;2.22;0.85;;;;;;;19.82;49.97;101472.88;16106043;19;131582;-67
2023/08/07 03:37:46;;;;;;;2.20;0.90;;;;;;;19.81;50.35;101483.16;16107745;19;131103;-66
2023/08/07 03:43:08;;;;;;;1.38;0.60;;;;;;;19.83;50.61;101482.91;16108241;19;129731;-64
2023/08/07 03:48:30;;;;;;;2.05;0.77;;;;;;;19.81;50.28;101485.13;16104624;19;130328;-63
2023/08/07 03:53:53;;;;;;;3.00;0.73;;;;;;;19.80;49.88;101480.66;16108296;19;131978;-66
2023/08/07 03:59:15;;;;;;;2.47;0.80;;;;;;;19.80;49.86;101483.41;16093608;19;130816;-64
2023/08/07 04:04:37;;;;;;;0.65;0.30;;;;;;;19.80;50.15;101488.97;16095800;19;130593;-62
2023/08/07 04:09:59;;;;;;;1.77;0.90;;;;;;;19.80;50.09;101488.97;16106654;19;129938;-66
2023/08/07 04:15:21;;;;;;;3.10;0.77;;;;;;;19.78;50.31;101489.19;16119116;19;130504;-70
2023/08/07 04:20:49;;;;;;;1.92;0.73;;;;;;;19.80;50.03;101488.97;16124735;19;129841;-66
2023/08/07 04:26:11;;;;;;;2.08;0.73;;;;;;;19.77;50.07;101483.91;16118236;19;130670;-63
2023/08/07 04:31:33;;;;;;;2.28;0.60;;;;;;;19.76;50.09;101487.75;16118733;19;131000;-60
2023/08/07 04:36:56;;;;;;;1.40;0.60;;;;;;;19.77;50.08;101500.56;16121204;19;131482;-65
2023/08/07 04:42:18;;;;;;;1.90;0.60;;;;;;;19.75;49.87;101506.34;16108315;19;129982;-65
2023/08/07 04:47:41;;;;;;;1.45;0.77;;;;;;;19.75;50.28;101502.72;16110585;19;132056;-65
2023/08/07 04:53:04;;;;;;;1.55;0.52;;;;;;;19.74;50.09;101499.09;16106723;19;133254;-60
2023/08/07 04:58:26;;;;;;;1.17;0.55;;;;;;;19.74;50.05;101507.44;16112921;19;132055;-64
2023/08/07 05:03:48;;;;;;;4.43;0.70;;;;;;;19.74;50.27;101512.13;16117390;19;133715;-57
2023/08/07 05:09:11;;;;;;;2.58;0.68;;;;;;;19.73;49.83;101522.41;16097720;19;130548;-63
2023/08/07 05:14:33;;;;;;;1.58;0.50;;;;;;;19.73;50.25;101521.53;16104184;19;129838;-65
2023/08/07 05:19:55;;;;;;;1.42;0.70;;;;;;;19.73;49.80;101527.09;16100623;19;130430;-66
2023/08/07 05:25:18;;;;;;;1.13;0.60;;;;;;;19.72;50.12;101519.84;16117880;19;129740;-63
2023/08/07 05:30:40;;;;;;;1.77;0.60;;;;;;;19.73;50.22;101529.88;16109928;19;130295;-59
2023/08/07 05:36:02;;;;;;;1.63;0.70;;;;;;;19.69;50.13;101533.13;16113073;19;131149;-62
2023/08/07 05:41:24;;;;;;;1.00;0.60;;;;;;;19.68;49.93;101542.56;16121998;19;130242;-59
2023/08/07 05:46:46;;;;;;;1.80;1.08;;;;;;;19.68;49.86;101539.78;16118942;19;129699;-59
2023/08/07 05:52:08;;;;;;;3.05;0.70;;;;;;;19.68;49.71;101550.00;16117945;19;130396;-59
2023/08/07 05:57:30;;;;;;;3.17;0.60;;;;;;;19.68;49.92;101548.09;16111413;19;129759;-63
2023/08/07 06:02:52;;;;;;;3.95;1.33;;;;;;;19.68;49.85;101553.66;16104155;19;129998;-58
2023/08/07 06:08:14;;;;;;;2.40;0.60;;;;;;;19.69;49.96;101560.03;16115041;19;130485;-57
2023/08/07 06:13:36;;;;;;;1.85;0.73;;;;;;;19.68;49.75;101559.22;16115272;19;130143;-58
2023/08/07 06:18:59;;;;;;;0.80;0.60;;;;;;;19.70;49.52;101570.06;16110870;19;130893;-58
2023/08/07 06:24:21;;;;;;;5.90;0.90;;;;;;;19.73;49.40;101577.06;16109272;19;129955;-58
2023/08/07 06:29:43;;;;;;;4.80;0.95;;;;;;;19.75;49.82;101577.66;16112224;19;130755;-59
2023/08/07 06:35:05;;;;;;;1.85;0.80;;;;;;;19.76;49.40;101571.03;16105066;19;129721;-58
2023/08/07 06:40:27;;;;;;;1.27;0.75;;;;;;;19.83;49.28;101585.66;16109218;19;129619;-58
2023/08/07 06:45:50;;;;;;;7.20;1.33;;;;;;;19.96;49.16;101584.59;16111413;19;129999;-58
2023/08/07 06:51:12;;;;;;;1.67;0.88;;;;;;;19.99;49.48;101579.44;16105844;19;130809;-58
2023/08/07 06:56:34;;;;;;;4.47;0.80;;;;;;;19.99;49.49;101576.66;16109811;19;131274;-58
2023/08/07 07:01:56;;;;;;;4.90;1.00;;;;;;;20.01;49.14;101581.13;16105696;19;129997;-56
2023/08/07 07:07:19;;;;;;;6.03;0.95;;;;;;;19.99;49.09;101582.22;16082605;19;130491;-56
2023/08/07 07:12:40;;;;;;;3.13;0.85;;;;;;;20.01;49.13;101578.34;16096342;19;129921;-57
2023/08/07 07:18:02;;;;;;;6.10;1.15;;;;;;;20.02;49.30;101585.59;16093533;19;130143;-55
2023/08/07 07:23:24;;;;;;;4.55;0.88;;;;;;;20.01;49.48;101595.00;16098423;19;129544;-55
2023/08/07 07:28:46;;;;;;;2.70;0.75;;;;;;;20.01;49.46;101595.00;16106407;19;132907;-54
2023/08/07 07:34:08;;;;;;;9.02;1.00;;;;;;;19.99;49.51;101593.31;16103404;19;132233;-57
2023/08/07 07:39:30;;;;;;;13.32;2.35;;;;;;;20.05;49.75;101599.00;16096870;19;131131;-61
2023/08/07 07:44:53;;;;;;;6.63;1.50;;;;;;;20.13;49.94;101607.81;16109881;19;130226;-59
2023/08/07 07:50:14;;;;;;;10.98;1.48;;;;;;;20.21;49.46;101612.19;16118867;19;130470;-60
2023/08/07 07:55:37;;;;;;;9.82;1.33;;;;;;;20.31;50.07;101608.81;16121813;19;129646;-59
2023/08/07 08:01:00;;;;;;;18.98;1.80;;;;;;;20.40;49.97;101609.31;16124189;19;131089;-58
2023/08/07 08:06:22;;;;;;;11.65;1.95;;;;;;;20.43;50.67;101609.66;16109707;19;131439;-56
2023/08/07 08:11:44;;;;;;;5.03;1.38;;;;;;;20.41;50.72;101622.09;16119658;19;130943;-58
2023/08/07 08:17:06;;;;;;;7.03;1.60;;;;;;;20.43;50.15;101626.31;16119761;19;129713;-54
2023/08/07 08:22:28;;;;;;;6.82;1.63;;;;;;;20.41;50.51;101641.56;16119497;19;130380;-59
2023/08/07 08:27:51;;;;;;;5.43;1.35;;;;;;;20.37;50.75;101641.16;16119940;19;130691;-63
2023/08/07 08:33:14;;;;;;;7.10;1.60;;;;;;;20.34;50.42;101654.72;16115542;19;131008;-60
2023/08/07 08:38:36;;;;;;;5.30;1.83;;;;;;;20.35;50.58;101656.41;16102878;19;130383;-63
2023/08/07 08:44:01;;;;;;;5.35;2.35;;;;;;;20.40;50.27;101653.75;16102190;19;130883;-59
2023/08/07 08:49:27;;;;;;;;;;;;;;;20.41;50.57;101650.72;16107862;19;134470;-60
2023/08/07 08:54:50;;;;;;;5.97;1.60;;;;;;;20.40;50.24;101653.75;16109762;19;130520;-59
2023/08/07 09:00:25;;;;;;;8.23;1.60;;;;;;;20.37;50.24;101665.34;16118870;19;131210;-56
2023/08/07 09:05:49;;;;;;;7.60;1.77;;;;;;;20.36;50.48;101670.06;16114785;19;130135;-62
2023/08/07 09:11:12;;;;;;;6.97;2.03;;;;;;;20.37;50.72;101668.97;16104305;19;130651;-61
2023/08/07 09:16:36;;;;;;;4.53;1.50;;;;;;;20.39;50.23;101674.31;16109051;19;130279;-60
2023/08/07 09:21:58;;;;;;;3.25;1.85;;;;;;;20.38;50.68;101672.59;16107462;19;131151;-61
2023/08/07 09:27:20;;;;;;;6.50;1.75;;;;;;;20.42;50.79;101666.31;16110218;19;130005;-56
2023/08/07 09:32:42;;;;;;;3.40;1.52;;;;;;;20.42;50.23;101676.59;16116736;19;129646;-60
2023/08/07 09:38:04;;;;;;;4.80;1.88;;;;;;;20.41;50.54;101681.31;16108472;19;131290;-61
2023/08/07 09:43:26;;;;;;;8.02;2.03;;;;;;;20.42;50.68;101676.59;16083801;19;129937;-61
2023/08/07 09:48:48;;;;;;;5.13;1.63;;;;;;;20.47;50.70;101675.88;16103752;19;130696;-60
2023/08/07 09:54:11;;;;;;;4.30;1.67;;;;;;;20.48;50.62;101688.69;16105509;19;129424;-59
2023/08/07 09:59:34;;;;;;;2.80;1.45;;;;;;;20.50;50.30;101692.91;16115072;19;131017;-59
2023/08/07 10:04:57;;;;;;;4.55;1.75;;;;;;;20.47;50.36;101689.78;16114707;19;130004;-60
2023/08/07 10:10:20;;;;;;;4.75;1.92;;;;;;;20.44;50.41;101704.97;16107441;19;129672;-59
2023/08/07 10:15:43;;;;;;;2.85;1.58;;;;;;;20.42;50.53;101707.19;16108559;19;130800;-61
2023/08/07 10:21:06;;;;;;;2.40;1.52;;;;;;;20.43;50.63;101712.50;16107572;19;131131;-59
2023/08/07 10:26:29;;;;;;;5.70;1.70;;;;;;;20.43;49.87;101706.09;16112121;19;130825;-61
2023/08/07 10:31:54;;;;;;;7.53;1.50;;;;;;;20.41;50.03;101719.38;16112658;19;130368;-60
2023/08/07 10:37:40;;;;;;;5.10;1.87;;;;;;;20.43;50.13;101725.56;16112321;19;130228;-59
2023/08/07 10:43:17;;;;;;;4.23;1.77;;;;;;;20.43;49.76;101718.03;16099614;19;130379;-60
2023/08/07 10:48:41;;;;;;;3.40;1.85;;;;;;;20.41;49.97;101717.44;16106100;19;130965;-60
2023/08/07 10:54:03;;;;;;;4.55;1.85;;;;;;;20.42;49.72;101715.53;16110887;19;132700;-60
2023/08/07 10:59:28;;;;;;;4.30;1.90;;;;;;;20.41;49.79;101727.72;16111529;19;130228;-59
2023/08/07 11:04:52;;;;;;;6.53;1.88;;;;;;;20.39;49.65;101724.31;16110214;19;130243;-60
2023/08/07 11:10:15;;;;;;;4.97;2.00;;;;;;;20.37;49.61;101732.88;16105290;19;130630;-60
2023/08/07 11:15:37;;;;;;;4.45;2.10;;;;;;;20.38;49.48;101730.97;16095498;19;131337;-60
2023/08/07 11:21:01;;;;;;;4.63;2.20;;;;;;;20.39;49.67;101743.78;16120617;19;130284;-61
2023/08/07 11:26:27;;;;;;;4.88;2.17;;;;;;;20.38;49.70;101742.09;16122416;19;130382;-60
2023/08/07 11:31:50;;;;;;;3.70;1.70;;;;;;;20.39;49.96;101736.28;16125396;19;130484;-59
2023/08/07 11:37:17;;;;;;;6.10;2.28;;;;;;;20.38;49.75;101742.09;16119838;19;130136;-60
2023/08/07 11:42:41;;;;;;;5.75;1.90;;;;;;;20.39;49.70;101727.09;16112670;19;132359;-59
2023/08/07 11:48:03;;;;;;;3.70;2.13;;;;;;;20.42;49.47;101729.41;16122034;19;129357;-56
2023/08/07 11:53:27;;;;;;;7.10;2.78;;;;;;;20.36;47.12;101727.56;16123723;19;131569;-54
2023/08/07 11:58:51;;;;;;;3.88;1.65;;;;;;;20.34;47.33;101718.63;16122896;19;130622;-58
2023/08/07 12:04:13;;;;;;;4.00;1.83;;;;;;;20.36;47.76;101724.78;16122863;19;130108;-58
2023/08/07 12:09:35;;;;;;;3.30;1.83;;;;;;;20.39;47.54;101707.66;16129511;19;130104;-59
2023/08/07 12:14:57;;;;;;;8.32;1.98;;;;;;;20.40;47.35;101726.84;16115443;19;130987;-59
2023/08/07 12:20:19;;;;;;;8.90;1.95;;;;;;;20.40;47.39;101726.84;16121642;19;131209;-60
2023/08/07 12:25:42;;;;;;;3.70;1.60;;;;;;;20.41;47.70;101717.44;16120524;19;129674;-62
2023/08/07 12:31:04;;;;;;;6.88;1.80;;;;;;;20.45;47.52;101715.00;16127933;19;131383;-60
2023/08/07 12:36:26;;;;;;;6.43;1.85;;;;;;;20.46;47.85;101719.50;16128233;19;129903;-59
2023/08/07 12:41:49;;;;;;;2.85;1.52;;;;;;;20.49;47.99;101713.47;16126819;19;130674;-60
2023/08/07 12:47:31;;;;;;;5.78;1.70;;;;;;;20.49;48.02;101707.91;16106385;19;129743;-60
2023/08/07 12:52:53;;;;;;;7.07;1.67;;;;;;;20.49;47.70;101705.13;16114916;19;129873;-60
2023/08/07 12:58:17;;;;;;;3.53;1.48;;;;;;;20.50;48.07;101704.03;16120060;19;131056;-60
2023/08/07 13:03:39;;;;;;;2.65;1.48;;;;;;;20.52;47.65;101696.31;16123634;19;132321;-60
2023/08/07 13:09:01;;;;;;;4.05;1.38;;;;;;;20.50;47.81;101687.34;16126625;19;130251;-60
2023/08/07 13:14:23;;;;;;;4.97;1.63;;;;;;;20.48;48.00;101702.59;16127196;19;129841;-59
2023/08/07 13:19:45;;;;;;;2.55;1.67;;;;;;;20.47;47.91;101715.63;16106170;19;130890;-59
2023/08/07 13:25:08;;;;;;;3.80;1.65;;;;;;;20.49;48.04;101709.84;16108118;19;129983;-60
2023/08/07 13:30:30;;;;;;;7.55;1.58;;;;;;;20.50;48.21;101706.81;16108972;19;129743;-60
2023/08/07 13:35:57;;;;;;;1.70;1.38;;;;;;;20.51;48.02;101710.44;16116249;19;130491;-60
2023/08/07 13:41:19;;;;;;;4.85;1.80;;;;;;;20.50;48.58;101704.03;16120916;19;130697;-59
2023/08/07 13:46:42;;;;;;;3.70;1.40;;;;;;;20.50;48.54;101704.03;16120367;19;130168;-59
2023/08/07 13:52:04;;;;;;;4.18;1.67;;;;;;;20.50;48.71;101709.59;16107869;19;130167;-61
2023/08/07 13:57:26;;;;;;;3.63;1.48;;;;;;;20.51;48.23;101700.19;16110499;19;129825;-61
2023/08/07 14:02:48;;;;;;;2.00;1.30;;;;;;;20.54;48.70;101693.28;16112458;19;129487;-60
2023/08/07 14:08:20;;;;;;;4.10;1.42;;;;;;;20.54;48.87;101696.91;16212166;19;130770;-58
2023/08/07 14:13:43;;;;;;;4.78;1.40;;;;;;;20.56;48.86;101707.78;16200894;19;129278;-58
2023/08/07 14:19:05;;;;;;;1.45;1.00;;;;;;;20.56;48.60;101700.28;16185245;19;129441;-59
2023/08/07 14:24:27;;;;;;;2.78;1.52;;;;;;;20.60;48.88;101707.06;16185482;19;131800;-58
2023/08/07 14:29:49;;;;;;;3.03;1.20;;;;;;;20.62;48.52;101700.41;16187068;19;129623;-59
2023/08/07 14:35:12;;;;;;;3.08;1.60;;;;;;;20.65;48.52;101705.50;16189353;19;130172;-58
2023/08/07 14:40:37;;;;;;;3.05;1.40;;;;;;;20.66;48.54;101715.53;16186290;19;131096;-58
2023/08/07 14:45:59;;;;;;;3.55;1.42;;;;;;;20.64;48.39;101721.31;16192521;19;130842;-58
2023/08/07 14:51:21;;;;;;;3.05;1.10;;;;;;;20.63;48.75;101714.06;16177177;19;130994;-58
2023/08/07 14:56:43;;;;;;;4.88;1.33;;;;;;;20.66;48.48;101716.38;16181252;19;130154;-61
2023/08/07 15:02:06;;;;;;;1.98;1.20;;;;;;;20.67;49.01;101720.00;16182910;19;129712;-59
2023/08/07 15:07:28;;;;;;;3.75;1.25;;;;;;;20.66;48.50;101715.53;16185661;19;130292;-65
2023/08/07 15:12:50;;;;;;;1.48;1.00;;;;;;;20.66;48.34;101727.50;16192899;19;130610;-62
2023/08/07 15:18:12;;;;;;;2.45;0.90;;;;;;;20.66;48.81;101726.66;16143641;19;129716;-61
2023/08/07 15:23:34;;;;;;;5.07;1.17;;;;;;;20.67;48.78;101729.19;16114941;19;131810;-58
2023/08/07 15:28:56;;;;;;;3.88;1.00;;;;;;;20.66;48.29;101729.44;16111121;19;130846;-59
2023/08/07 15:34:17;;;;;;;4.32;1.00;;;;;;;20.64;48.67;101735.22;16118035;19;130041;-58
2023/08/07 15:39:40;;;;;;;5.07;1.20;;;;;;;20.65;48.58;101727.75;16116877;19;131117;-59
2023/08/07 15:45:04;;;;;;;2.63;1.05;;;;;;;20.64;48.16;101723.25;16124490;19;130568;-59
2023/08/07 15:50:26;;;;;;;1.30;0.75;;;;;;;20.62;47.58;101722.66;16124791;19;129771;-60
2023/08/07 15:55:49;;;;;;;1.65;0.85;;;;;;;20.58;47.71;101712.00;16113372;19;130758;-60
2023/08/07 16:01:11;;;;;;;2.47;1.00;;;;;;;20.58;47.20;101725.06;16118438;19;129627;-59
2023/08/07 16:06:33;;;;;;;5.93;0.77;;;;;;;20.55;47.31;101729.19;16120055;19;130059;-59
2023/08/07 16:11:55;;;;;;;3.22;0.85;;;;;;;20.55;47.17;101723.63;16120031;19;129677;-60
2023/08/07 16:17:17;;;;;;;1.52;0.80;;;;;;;20.54;46.89;101716.38;16122890;19;129945;-59
2023/08/07 16:22:39;;;;;;;2.47;0.73;;;;;;;20.52;46.81;101717.69;16107779;19;130819;-59
2023/08/07 16:28:03;;;;;;;1.95;0.93;;;;;;;20.51;47.22;101715.97;16106076;19;132123;-59
2023/08/07 16:33:25;;;;;;;2.22;0.70;;;;;;;20.52;47.39;101710.22;16112609;19;129677;-60
2023/08/07 16:38:48;;;;;;;2.83;0.80;;;;;;;20.53;47.49;101702.69;16116830;19;130734;-59
2023/08/07 16:44:10;;;;;;;1.98;0.70;;;;;;;20.54;47.08;101707.19;16120923;19;129622;-59
2023/08/07 16:49:34;;;;;;;3.28;0.77;;;;;;;20.55;47.29;101706.09;16116932;19;130901;-59
2023/08/07 16:54:56;;;;;;;1.23;0.65;;;;;;;20.55;47.37;101695.84;16105456;19;129853;-57
2023/08/07 17:00:18;;;;;;;2.30;0.70;;;;;;;20.56;47.32;101703.06;16111202;19;129917;-60
2023/08/07 17:05:40;;;;;;;1.42;0.60;;;;;;;20.59;47.55;101697.03;16115923;19;129568;-60
2023/08/07 17:11:03;;;;;;;2.70;0.80;;;;;;;20.63;47.30;101704.88;16117502;19;130160;-60
2023/08/07 17:16:26;;;;;;;1.65;0.80;;;;;;;20.66;47.44;101707.19;16119399;19;131138;-59
2023/08/07 17:21:49;;;;;;;1.90;0.70;;;;;;;20.67;47.84;101693.03;16118029;19;130434;-59
2023/08/07 17:27:11;;;;;;;1.40;0.65;;;;;;;20.68;47.60;101705.84;16105422;19;130484;-57
2023/08/07 17:32:36;;;;;;;2.22;0.70;;;;;;;20.66;47.34;101707.19;16109848;19;130464;-60
2023/08/07 17:37:58;;;;;;;1.15;0.60;;;;;;;20.64;47.73;101704.63;16112981;19;130109;-58
2023/08/07 17:43:21;;;;;;;2.38;0.60;;;;;;;20.63;47.80;101708.50;16112104;19;130695;-60
2023/08/07 17:48:44;;;;;;;3.22;0.65;;;;;;;20.61;47.67;101691.25;16118146;19;130978;-59
2023/08/07 17:54:06;;;;;;;4.47;1.15;;;;;;;20.58;47.72;101698.09;16111278;19;130197;-61
2023/08/07 17:59:28;;;;;;;1.92;0.63;;;;;;;20.58;47.90;101700.88;16094590;19;130113;-59
2023/08/07 18:04:50;;;;;;;4.90;0.80;;;;;;;20.58;47.89;101700.88;16099798;19;130801;-60
2023/08/07 18:10:12;;;;;;;6.57;0.90;;;;;;;20.57;48.05;101692.81;16104126;19;130125;-59
2023/08/07 18:15:34;;;;;;;1.95;0.60;;;;;;;20.58;47.85;101687.00;16114893;19;130816;-59
2023/08/07 18:20:58;;;;;;;3.83;1.15;;;;;;;20.56;48.00;101680.81;16113217;19;129476;-60
2023/08/07 18:26:20;;;;;;;1.75;0.77;;;;;;;20.56;48.15;101680.00;16101900;19;131472;-62
2023/08/07 18:31:43;;;;;;;2.53;0.85;;;;;;;20.57;48.19;101684.47;16106478;19;129882;-59
2023/08/07 18:37:05;;;;;;;9.45;1.05;;;;;;;20.54;48.14;101671.03;16106154;19;130812;-59
2023/08/07 18:42:26;;;;;;;15.63;1.30;;;;;;;20.50;48.72;101665.13;16100925;19;129457;-60
2023/08/07 18:47:50;;;;;;;11.43;1.52;;;;;;;20.50;48.78;101665.13;16103680;19;131735;-60
2023/08/07 18:53:12;;;;;;;10.07;1.63;;;;;;;20.50;48.82;101667.91;16119596;19;130788;-59
2023/08/07 18:58:35;;;;;;;10.43;2.00;;;;;;;20.50;48.91;101669.81;16116898;19;130469;-59
2023/08/07 19:03:57;;;;;;;3.67;1.30;;;;;;;20.49;48.80;101662.59;16116666;19;130514;-60
2023/08/07 19:09:19;;;;;;;10.90;1.42;;;;;;;20.49;49.06;101659.81;16107174;19;133170;-60
2023/08/07 19:14:41;;;;;;;10.75;1.50;;;;;;;20.45;49.42;101663.06;16122606;19;130215;-62
2023/08/07 19:20:04;;;;;;;16.00;1.63;;;;;;;20.45;49.10;101654.72;16127693;19;129752;-60
2023/08/07 19:25:26;;;;;;;16.98;1.85;;;;;;;20.45;48.80;101653.88;16117289;19;130108;-59
2023/08/07 19:30:49;;;;;;;18.60;2.22;;;;;;;20.44;49.23;101655.81;16111556;19;130893;-59
2023/08/07 19:36:26;;;;;;;22.38;2.20;;;;;;;20.44;49.22;101660.50;16116996;19;129504;-60
2023/08/07 19:41:48;;;;;;;7.85;1.42;;;;;;;20.43;49.26;101658.84;16117597;19;129740;-59
2023/08/07 19:47:10;;;;;;;13.48;2.17;;;;;;;20.43;49.30;101664.41;16121310;19;130600;-61
2023/08/07 19:52:42;;;;;;;21.70;2.47;;;;;;;20.44;49.44;101655.81;16123699;19;129908;-64
2023/08/07 19:58:05;;;;;;;6.95;1.40;;;;;;;20.52;49.37;101645.41;16117957;19;130986;-64
2023/08/07 20:03:28;;;;;;;8.45;1.10;;;;;;;20.59;49.26;101643.38;16119362;19;130448;-68
2023/08/07 20:08:50;;;;;;;16.08;1.52;;;;;;;20.58;49.46;101631.41;16120084;19;129326;-68
2023/08/07 20:14:12;;;;;;;8.00;1.67;;;;;;;20.56;48.96;101636.34;16119693;19;131706;-68
2023/08/07 20:19:35;;;;;;;7.82;1.35;;;;;;;20.54;48.98;101621.88;16107102;19;131546;-66
2023/08/07 20:24:57;;;;;;;13.27;1.38;;;;;;;20.55;48.80;101622.69;16115323;19;129733;-65
2023/08/07 20:30:19;;;;;;;5.90;1.35;;;;;;;20.54;48.90;101627.44;16116440;19;129715;-67
2023/08/07 20:35:41;;;;;;;8.07;1.20;;;;;;;20.53;48.75;101630.44;16123945;19;129717;-66
2023/08/07 20:41:03;;;;;;;5.57;0.90;;;;;;;20.52;48.79;101624.03;16117809;19;131517;-67
2023/08/07 20:46:25;;;;;;;5.18;1.10;;;;;;;20.53;48.94;101622.94;16112329;19;131001;-67
2023/08/07 20:51:47;;;;;;;6.57;0.90;;;;;;;20.52;49.20;101612.91;16117034;19;131502;-69
2023/08/07 20:57:09;;;;;;;5.65;0.95;;;;;;;20.51;49.08;101616.78;16107009;19;130419;-69
2023/08/07 21:02:31;;;;;;;2.95;0.68;;;;;;;20.50;49.03;101614.22;16109011;19;129486;-67
2023/08/07 21:07:53;;;;;;;9.00;1.00;;;;;;;20.49;49.09;101613.41;16113297;19;129592;-65
2023/08/07 21:13:15;;;;;;;6.10;0.95;;;;;;;20.49;48.83;101610.63;16109797;19;129442;-67
2023/08/07 21:18:37;;;;;;;7.10;0.80;;;;;;;20.46;48.88;101602.75;16112103;19;129618;-65
2023/08/07 21:23:59;;;;;;;4.35;0.80;;;;;;;20.44;49.21;101589.13;16112002;19;129603;-64
2023/08/07 21:29:21;;;;;;;11.90;1.00;;;;;;;20.43;49.28;101586.59;16109908;19;130302;-63
2023/08/07 21:34:43;;;;;;;4.55;0.80;;;;;;;20.41;49.36;101588.75;16096630;19;130038;-63
2023/08/07 21:40:08;;;;;;;5.70;1.00;;;;;;;20.40;49.04;101587.91;16111893;19;131258;-64
2023/08/07 21:45:30;;;;;;;5.07;1.05;;;;;;;20.38;49.40;101580.91;16118567;19;130573;-64
2023/08/07 21:50:53;;;;;;;4.13;0.90;;;;;;;20.38;49.37;101578.13;16123748;19;129258;-63
2023/08/07 21:56:15;;;;;;;6.45;1.00;;;;;;;20.36;49.50;101569.19;16122899;19;131089;-59
2023/08/07 22:01:37;;;;;;;2.70;0.82;;;;;;;20.35;49.28;101567.47;16104169;19;130297;-63
2023/08/07 22:06:59;;;;;;;4.65;0.65;;;;;;;20.34;49.11;101571.34;16112864;19;130229;-63
2023/08/07 22:12:21;;;;;;;3.92;0.95;;;;;;;20.33;49.73;101572.44;16116980;19;130686;-63
2023/08/07 22:17:43;;;;;;;4.03;0.63;;;;;;;20.31;49.68;101563.53;16116316;19;129619;-63
2023/08/07 22:23:05;;;;;;;3.20;0.77;;;;;;;20.29;49.51;101556.28;16116150;19;130087;-64
2023/08/07 22:28:27;;;;;;;6.15;0.98;;;;;;;20.29;49.72;101563.75;16124934;19;129996;-63
2023/08/07 22:33:49;;;;;;;3.42;0.85;;;;;;;20.28;49.76;101553.72;16114732;19;131160;-65
2023/08/07 22:39:11;;;;;;;2.47;0.65;;;;;;;20.26;49.29;101559.53;16128005;19;130929;-64
2023/08/07 22:44:33;;;;;;;1.90;0.68;;;;;;;20.25;49.85;101555.06;16144243;19;130359;-63
2023/08/07 22:49:55;;;;;;;3.08;0.80;;;;;;;20.24;49.90;101558.09;16147450;19;129441;-63
2023/08/07 22:55:17;;;;;;;2.35;0.85;;;;;;;20.24;49.53;101553.34;16149502;19;129504;-63
2023/08/07 23:00:40;;;;;;;3.92;1.00;;;;;;;20.23;49.52;101548.88;16142868;19;129917;-64
2023/08/07 23:06:02;;;;;;;3.25;0.60;;;;;;;20.22;49.94;101552.75;16130986;19;130393;-64
2023/08/07 23:11:24;;;;;;;2.00;0.60;;;;;;;20.21;49.92;101534.38;16137814;19;129889;-64
2023/08/07 23:16:46;;;;;;;2.38;0.60;;;;;;;20.20;49.60;101532.69;16140867;19;129545;-64
2023/08/07 23:22:08;;;;;;;2.08;0.65;;;;;;;20.21;49.70;101528.00;16144984;19;129186;-64
2023/08/07 23:27:30;;;;;;;4.13;0.80;;;;;;;20.19;49.68;101517.09;16145270;19;130830;-64
2023/08/07 23:32:56;;;;;;;2.20;0.60;;;;;;;20.19;49.57;101508.78;16159024;19;128907;-64
2023/08/07 23:38:18;;;;;;;;;;;;;;;20.15;49.78;101507.59;16185589;19;128705;-64
2023/08/07 23:43:39;;;;;;;2.60;0.57;;;;;;;20.17;49.89;101508.19;16195661;19;132210;-63
2023/08/07 23:49:01;;;;;;;2.65;0.90;;;;;;;20.15;50.07;101504.81;16194136;19;129019;-62
2023/08/07 23:54:23;;;;;;;5.20;0.70;;;;;;;20.13;49.73;101493.94;16202485;19;130453;-62
2023/08/07 23:59:45;;;;;;;1.80;0.68;;;;;;;20.14;49.76;101500.34;16202349;19;128968;-62
